createdAt,value
2017-12-16T00:00:53.073Z,99083.23
2017-12-16T00:03:20.565Z,99085.98
2017-12-16T00:05:48.061Z,99085.99
2017-12-16T00:08:15.507Z,99091.27
2017-12-16T00:10:42.967Z,99093.89
2017-12-16T00:13:10.426Z,99099.87
2017-12-16T00:15:37.897Z,99100.73
2017-12-16T00:18:05.343Z,99102.50
2017-12-16T00:23:06.632Z,99106.52
2017-12-16T00:25:34.116Z,99105.84
2017-12-16T00:28:01.625Z,99098.58
2017-12-16T00:30:30.240Z,99097.84
2017-12-16T00:32:57.752Z,99097.07
2017-12-16T00:35:25.219Z,99094.63
2017-12-16T00:37:52.665Z,99094.06
2017-12-16T00:40:20.129Z,99093.66
2017-12-16T00:42:47.629Z,99100.16
2017-12-16T00:45:15.324Z,99097.99
2017-12-16T00:47:42.808Z,99092.48
2017-12-16T00:50:10.259Z,99091.72
2017-12-16T00:52:37.736Z,99095.63
2017-12-16T00:55:05.270Z,99096.94
2017-12-16T00:57:32.729Z,99102.23
2017-12-16T01:00:00.294Z,99094.91
2017-12-16T01:02:27.785Z,99099.17
2017-12-16T01:04:55.245Z,99103.14
2017-12-16T01:07:22.721Z,99110.02
2017-12-16T01:09:50.184Z,99115.96
2017-12-16T01:12:17.637Z,99119.83
2017-12-16T01:14:45.116Z,99131.80
2017-12-16T01:17:12.569Z,99128.61
2017-12-16T01:19:40.088Z,99129.94
2017-12-16T01:22:07.547Z,99139.95
2017-12-16T01:24:35.057Z,99131.96
2017-12-16T01:27:02.524Z,99145.06
2017-12-16T01:29:30.015Z,99156.64
2017-12-16T01:31:57.481Z,99155.61
2017-12-16T01:34:36.860Z,99158.55
2017-12-16T01:40:05.122Z,99176.66
2017-12-16T01:42:32.691Z,99183.17
2017-12-16T01:45:00.145Z,99187.75
2017-12-16T01:47:27.665Z,99197.44
2017-12-16T01:49:55.167Z,99199.98
2017-12-16T01:52:22.614Z,99202.71
2017-12-16T01:54:50.059Z,99202.22
2017-12-16T01:57:17.551Z,99210.45
2017-12-16T01:59:45.015Z,99214.61
2017-12-16T02:02:12.474Z,99209.09
2017-12-16T02:04:39.901Z,99208.27
2017-12-16T02:07:07.376Z,99217.44
2017-12-16T02:09:34.820Z,99218.23
2017-12-16T02:12:02.266Z,99223.95
2017-12-16T02:14:29.701Z,99226.65
2017-12-16T02:16:57.206Z,99229.97
2017-12-16T02:19:24.637Z,99237.98
2017-12-16T02:21:52.109Z,99241.43
2017-12-16T02:24:19.547Z,99241.16
2017-12-16T02:26:47.036Z,99247.82
2017-12-16T02:29:14.592Z,99245.70
2017-12-16T02:31:42.075Z,99249.95
2017-12-16T02:34:09.523Z,99259.98
2017-12-16T02:36:36.978Z,99250.73
2017-12-16T02:39:04.505Z,99255.59
2017-12-16T02:41:31.955Z,99259.38
2017-12-16T02:43:59.419Z,99258.28
2017-12-16T02:46:26.855Z,99260.69
2017-12-16T02:48:54.327Z,99262.20
2017-12-16T02:51:21.768Z,99270.34
2017-12-16T02:53:49.224Z,99276.41
2017-12-16T02:56:16.753Z,99283.28
2017-12-16T02:58:44.223Z,99288.66
2017-12-16T03:01:11.681Z,99282.52
2017-12-16T03:03:39.136Z,99282.47
2017-12-16T03:06:06.581Z,99286.55
2017-12-16T03:08:34.049Z,99292.78
2017-12-16T03:11:01.481Z,99290.39
2017-12-16T03:13:28.979Z,99298.38
2017-12-16T03:15:56.413Z,99299.18
2017-12-16T03:18:23.855Z,99302.74
2017-12-16T03:20:51.312Z,99308.50
2017-12-16T03:23:18.755Z,99311.83
2017-12-16T03:25:46.220Z,99315.34
2017-12-16T03:28:13.683Z,99313.23
2017-12-16T03:30:41.157Z,99315.95
2017-12-16T03:33:08.614Z,99317.41
2017-12-16T03:35:36.083Z,99318.04
2017-12-16T03:38:03.527Z,99323.20
2017-12-16T03:40:30.985Z,99322.30
2017-12-16T03:42:58.431Z,99326.05
2017-12-16T03:45:25.897Z,99326.25
2017-12-16T03:47:53.343Z,99327.47
2017-12-16T03:50:20.812Z,99336.31
2017-12-16T03:52:48.254Z,99340.84
2017-12-16T03:55:15.747Z,99338.69
2017-12-16T03:57:43.203Z,99344.28
2017-12-16T04:00:10.639Z,99349.69
2017-12-16T04:02:38.099Z,99355.09
2017-12-16T04:05:05.540Z,99363.73
2017-12-16T04:07:32.999Z,99368.35
2017-12-16T04:10:00.497Z,99366.42
2017-12-16T04:12:27.950Z,99366.67
2017-12-16T04:14:55.394Z,99382.91
2017-12-16T04:17:22.842Z,99387.33
2017-12-16T04:19:50.287Z,99381.91
2017-12-16T04:22:17.790Z,99388.58
2017-12-16T04:24:45.226Z,99394.88
2017-12-16T04:27:12.700Z,99396.23
2017-12-16T04:29:40.136Z,99399.23
2017-12-16T04:32:07.607Z,99401.00
2017-12-16T04:34:35.071Z,99408.68
2017-12-16T04:37:02.552Z,99411.27
2017-12-16T04:39:30.003Z,99415.24
2017-12-16T04:41:57.512Z,99419.60
2017-12-16T04:44:24.963Z,99416.81
2017-12-16T04:46:52.426Z,99420.59
2017-12-16T04:49:19.916Z,99431.39
2017-12-16T04:51:47.372Z,99436.36
2017-12-16T04:54:14.846Z,99432.13
2017-12-16T04:56:42.277Z,99437.48
2017-12-16T04:59:09.738Z,99439.52
2017-12-16T05:01:37.174Z,99446.41
2017-12-16T05:04:04.652Z,99453.84
2017-12-16T05:06:32.108Z,99455.74
2017-12-16T05:08:59.587Z,99454.91
2017-12-16T05:11:27.018Z,99458.50
2017-12-16T05:13:54.482Z,99461.06
2017-12-16T05:16:21.928Z,99463.02
2017-12-16T05:18:49.399Z,99470.11
2017-12-16T05:21:16.843Z,99472.68
2017-12-16T05:23:44.308Z,99472.16
2017-12-16T05:26:11.768Z,99472.58
2017-12-16T05:28:39.236Z,99477.86
2017-12-16T05:31:06.767Z,99479.59
2017-12-16T05:33:34.289Z,99478.47
2017-12-16T05:36:01.721Z,99483.67
2017-12-16T05:38:29.173Z,99485.55
2017-12-16T05:40:56.601Z,99484.19
2017-12-16T05:43:24.036Z,99488.17
2017-12-16T05:45:51.491Z,99502.83
2017-12-16T05:48:18.929Z,99500.78
2017-12-16T05:50:46.391Z,99505.08
2017-12-16T05:53:13.843Z,99502.30
2017-12-16T05:55:41.320Z,99510.58
2017-12-16T05:58:08.780Z,99514.18
2017-12-16T06:00:36.233Z,99519.45
2017-12-16T06:03:03.679Z,99522.38
2017-12-16T06:05:31.137Z,99528.64
2017-12-16T06:07:58.575Z,99530.88
2017-12-16T06:10:26.047Z,99533.98
2017-12-16T06:12:53.484Z,99537.49
2017-12-16T06:15:20.969Z,99546.20
2017-12-16T06:17:48.401Z,99541.41
2017-12-16T06:20:15.860Z,99552.64
2017-12-16T06:22:43.297Z,99555.91
2017-12-16T06:25:10.807Z,99561.27
2017-12-16T06:27:38.247Z,99554.73
2017-12-16T06:30:05.696Z,99555.33
2017-12-16T06:32:33.129Z,99552.73
2017-12-16T06:35:00.593Z,99558.28
2017-12-16T06:37:28.033Z,99563.98
2017-12-16T06:39:55.561Z,99565.84
2017-12-16T06:42:23.006Z,99576.84
2017-12-16T06:44:50.442Z,99574.63
2017-12-16T06:47:17.906Z,99571.12
2017-12-16T06:49:45.344Z,99580.32
2017-12-16T06:52:12.802Z,99589.61
2017-12-16T06:54:40.248Z,99587.90
2017-12-16T06:57:07.714Z,99584.34
2017-12-16T06:59:35.168Z,99594.87
2017-12-16T07:02:02.656Z,99603.56
2017-12-16T07:04:30.104Z,99602.41
2017-12-16T07:06:57.567Z,99607.22
2017-12-16T07:09:24.998Z,99613.67
2017-12-16T07:11:52.472Z,99617.95
2017-12-16T07:14:19.923Z,99620.55
2017-12-16T07:16:47.382Z,99620.00
2017-12-16T07:19:14.827Z,99631.47
2017-12-16T07:21:42.549Z,99635.53
2017-12-16T07:24:09.985Z,99645.91
2017-12-16T07:26:37.463Z,99647.08
2017-12-16T07:29:04.947Z,99658.47
2017-12-16T07:31:32.406Z,99662.94
2017-12-16T07:33:59.870Z,99669.51
2017-12-16T07:36:27.354Z,99665.89
2017-12-16T07:38:54.822Z,99676.52
2017-12-16T07:41:22.299Z,99692.31
2017-12-16T07:43:49.754Z,99692.21
2017-12-16T07:46:17.203Z,99697.74
2017-12-16T07:48:44.657Z,99703.59
2017-12-16T07:51:12.116Z,99707.06
2017-12-16T07:53:39.583Z,99709.65
2017-12-16T07:56:07.027Z,99713.70
2017-12-16T07:58:34.534Z,99717.67
2017-12-16T08:01:01.991Z,99719.87
2017-12-16T08:03:29.427Z,99726.94
2017-12-16T08:05:56.972Z,99733.55
2017-12-16T08:08:24.431Z,99737.36
2017-12-16T08:10:51.891Z,99732.85
2017-12-16T08:13:19.338Z,99732.88
2017-12-16T08:15:46.810Z,99730.25
2017-12-16T08:18:14.259Z,99732.48
2017-12-16T08:20:41.737Z,99723.02
2017-12-16T08:23:09.169Z,99733.00
2017-12-16T08:25:36.655Z,99745.55
2017-12-16T08:28:04.146Z,99759.75
2017-12-16T08:30:31.602Z,99759.85
2017-12-16T08:32:59.043Z,99768.64
2017-12-16T08:35:26.506Z,99764.70
2017-12-16T08:37:54.002Z,99774.28
2017-12-16T08:40:21.428Z,99779.53
2017-12-16T08:42:48.879Z,99784.29
2017-12-16T08:45:16.352Z,99795.37
2017-12-16T08:47:43.799Z,99788.37
2017-12-16T08:50:11.293Z,99798.08
2017-12-16T08:52:38.734Z,99805.16
2017-12-16T08:55:06.188Z,99808.69
2017-12-16T08:57:33.660Z,99815.23
2017-12-16T09:00:01.105Z,99816.10
2017-12-16T09:02:28.575Z,99813.17
2017-12-16T09:04:56.031Z,99817.97
2017-12-16T09:07:23.559Z,99821.42
2017-12-16T09:09:51.011Z,99831.06
2017-12-16T09:12:18.579Z,99833.64
2017-12-16T09:14:46.027Z,99846.82
2017-12-16T09:17:13.486Z,99849.40
2017-12-16T09:19:41.083Z,99856.34
2017-12-16T09:22:08.542Z,99865.52
2017-12-16T09:24:35.996Z,99869.42
2017-12-16T09:27:03.463Z,99876.94
2017-12-16T09:29:30.902Z,99877.64
2017-12-16T09:31:58.346Z,99875.50
2017-12-16T09:34:25.819Z,99880.73
2017-12-16T09:36:53.279Z,99880.17
2017-12-16T09:39:20.749Z,99887.05
2017-12-16T09:41:48.215Z,99888.01
2017-12-16T09:44:15.674Z,99888.48
2017-12-16T09:46:43.123Z,99893.33
2017-12-16T09:49:10.595Z,99897.25
2017-12-16T09:51:38.041Z,99898.94
2017-12-16T09:54:05.498Z,99902.82
2017-12-16T09:56:32.944Z,99909.74
2017-12-16T09:59:00.415Z,99909.12
2017-12-16T10:01:27.849Z,99896.94
2017-12-16T10:03:55.318Z,99903.55
2017-12-16T10:06:22.774Z,99901.17
2017-12-16T10:08:50.259Z,99904.67
2017-12-16T10:11:17.744Z,99903.89
2017-12-16T10:13:45.210Z,99902.59
2017-12-16T10:16:12.670Z,99908.00
2017-12-16T10:18:40.119Z,99902.97
2017-12-16T10:21:07.631Z,99908.77
2017-12-16T10:23:35.102Z,99911.70
2017-12-16T10:26:02.570Z,99919.16
2017-12-16T10:28:30.043Z,99924.22
2017-12-16T10:30:57.506Z,99920.27
2017-12-16T10:33:25.001Z,99927.13
2017-12-16T10:35:52.471Z,99931.36
2017-12-16T10:38:19.922Z,99936.73
2017-12-16T10:40:47.387Z,99935.09
2017-12-16T10:43:14.830Z,99942.87
2017-12-16T10:45:42.294Z,99951.29
2017-12-16T10:48:09.782Z,99947.71
2017-12-16T10:50:37.255Z,99945.27
2017-12-16T10:53:04.790Z,99946.75
2017-12-16T10:55:32.282Z,99942.83
2017-12-16T10:57:59.729Z,99948.62
2017-12-16T11:00:32.931Z,99951.30
2017-12-16T11:03:00.387Z,99957.42
2017-12-16T11:05:27.928Z,99956.13
2017-12-16T11:07:55.389Z,99957.91
2017-12-16T11:10:22.839Z,99961.47
2017-12-16T11:12:50.292Z,99960.19
2017-12-16T11:15:17.734Z,99960.88
2017-12-16T11:17:45.254Z,99959.77
2017-12-16T11:20:12.707Z,99963.52
2017-12-16T11:22:40.224Z,99956.28
2017-12-16T11:25:07.671Z,99952.76
2017-12-16T11:27:35.136Z,99952.34
2017-12-16T11:30:02.592Z,99964.21
2017-12-16T11:32:30.142Z,99965.92
2017-12-16T11:34:57.570Z,99970.53
2017-12-16T11:37:25.041Z,99971.28
2017-12-16T11:39:52.506Z,99982.69
2017-12-16T11:42:19.966Z,99986.36
2017-12-16T11:44:47.434Z,99993.44
2017-12-16T11:47:14.896Z,99993.12
2017-12-16T11:49:42.348Z,99980.92
2017-12-16T11:52:09.803Z,99990.13
2017-12-16T11:54:37.242Z,99981.00
2017-12-16T11:57:04.690Z,99988.48
2017-12-16T11:59:32.113Z,99986.48
2017-12-16T12:01:59.578Z,99988.27
2017-12-16T12:04:27.006Z,99990.09
2017-12-16T12:06:54.446Z,99987.52
2017-12-16T12:09:22.114Z,99990.25
2017-12-16T12:11:49.582Z,99996.48
2017-12-16T12:14:17.064Z,99995.39
2017-12-16T12:16:44.503Z,99995.03
2017-12-16T12:19:11.970Z,100000.57
2017-12-16T12:21:39.405Z,100007.77
2017-12-16T12:24:06.860Z,100015.17
2017-12-16T12:26:34.386Z,100013.91
2017-12-16T12:29:01.850Z,100022.72
2017-12-16T12:31:29.443Z,100024.77
2017-12-16T12:33:56.888Z,100027.32
2017-12-16T12:36:24.327Z,100033.50
2017-12-16T12:38:51.787Z,100024.72
2017-12-16T12:41:19.213Z,100033.36
2017-12-16T12:43:46.678Z,100035.12
2017-12-16T12:46:14.137Z,100033.17
2017-12-16T12:48:41.632Z,100032.20
2017-12-16T12:51:09.087Z,100038.34
2017-12-16T12:53:36.517Z,100040.29
2017-12-16T12:56:03.974Z,100043.67
2017-12-16T12:58:31.415Z,100045.02
2017-12-16T13:00:58.887Z,100041.30
2017-12-16T13:03:26.329Z,100043.03
2017-12-16T13:05:53.793Z,100050.02
2017-12-16T13:08:21.220Z,100041.17
2017-12-16T13:10:48.669Z,100047.77
2017-12-16T13:13:16.103Z,100043.20
2017-12-16T13:15:43.563Z,100046.16
2017-12-16T13:18:11.004Z,100048.36
2017-12-16T13:20:38.477Z,100051.14
2017-12-16T13:23:05.995Z,100052.08
2017-12-16T13:25:33.459Z,100056.08
2017-12-16T13:28:00.907Z,100056.98
2017-12-16T13:30:28.368Z,100058.67
2017-12-16T13:32:55.820Z,100059.42
2017-12-16T13:35:23.305Z,100063.97
2017-12-16T13:37:50.743Z,100068.27
2017-12-16T13:40:18.214Z,100078.80
2017-12-16T13:42:45.659Z,100084.59
2017-12-16T13:45:13.164Z,100087.86
2017-12-16T13:47:40.612Z,100089.89
2017-12-16T13:50:08.051Z,100102.22
2017-12-16T13:52:35.505Z,100096.80
2017-12-16T13:55:02.938Z,100090.30
2017-12-16T13:57:30.385Z,100074.51
2017-12-16T13:59:57.850Z,100081.90
2017-12-16T14:02:25.315Z,100098.41
2017-12-16T14:04:52.764Z,100100.72
2017-12-16T14:07:20.225Z,100100.20
2017-12-16T14:09:47.667Z,100089.84
2017-12-16T14:12:15.128Z,100099.17
2017-12-16T14:14:42.566Z,100106.95
2017-12-16T14:17:10.031Z,100106.00
2017-12-16T14:19:37.499Z,100107.21
2017-12-16T14:22:04.966Z,100114.61
2017-12-16T14:24:32.480Z,100114.06
2017-12-16T14:26:59.914Z,100114.13
2017-12-16T14:29:27.375Z,100108.72
2017-12-16T14:31:54.810Z,100117.52
2017-12-16T14:34:22.292Z,100129.34
2017-12-16T14:36:49.733Z,100128.92
2017-12-16T14:39:24.779Z,100133.12
2017-12-16T14:41:52.238Z,100140.63
2017-12-16T14:44:19.701Z,100140.52
2017-12-16T14:46:47.165Z,100143.45
2017-12-16T14:49:14.617Z,100141.63
2017-12-16T14:51:42.067Z,100148.25
2017-12-16T14:54:09.530Z,100151.39
2017-12-16T14:56:36.982Z,100158.55
2017-12-16T14:59:04.451Z,100160.26
2017-12-16T15:01:31.936Z,100166.84
2017-12-16T15:03:59.375Z,100166.19
2017-12-16T15:06:26.834Z,100167.72
2017-12-16T15:08:54.287Z,100174.88
2017-12-16T15:11:21.752Z,100176.81
2017-12-16T15:13:49.189Z,100178.08
2017-12-16T15:16:16.640Z,100185.23
2017-12-16T15:18:44.080Z,100182.98
2017-12-16T15:21:11.546Z,100189.58
2017-12-16T15:23:38.990Z,100195.17
2017-12-16T15:26:06.464Z,100201.89
2017-12-16T15:28:33.908Z,100199.80
2017-12-16T15:31:01.405Z,100202.41
2017-12-16T15:33:28.868Z,100206.45
2017-12-16T15:35:56.325Z,100209.52
2017-12-16T15:38:23.795Z,100208.14
2017-12-16T15:40:51.238Z,100213.87
2017-12-16T15:43:18.802Z,100215.11
2017-12-16T15:45:46.248Z,100222.73
2017-12-16T15:48:13.714Z,100218.67
2017-12-16T15:50:41.147Z,100223.66
2017-12-16T15:53:08.602Z,100232.08
2017-12-16T15:55:36.054Z,100235.55
2017-12-16T15:58:03.506Z,100239.98
2017-12-16T16:00:30.933Z,100244.75
2017-12-16T16:02:58.402Z,100254.55
2017-12-16T16:05:25.876Z,100252.28
2017-12-16T16:07:53.324Z,100261.49
2017-12-16T16:10:20.782Z,100259.31
2017-12-16T16:12:48.224Z,100270.25
2017-12-16T16:15:15.721Z,100270.22
2017-12-16T16:17:43.190Z,100271.16
2017-12-16T16:20:10.651Z,100275.13
2017-12-16T16:22:38.094Z,100271.16
2017-12-16T16:25:05.554Z,100275.59
2017-12-16T16:27:32.989Z,100284.87
2017-12-16T16:30:00.495Z,100293.66
2017-12-16T16:32:27.942Z,100292.84
2017-12-16T16:34:55.419Z,100289.83
2017-12-16T16:37:22.877Z,100297.27
2017-12-16T16:39:50.399Z,100302.95
2017-12-16T16:42:17.845Z,100301.58
2017-12-16T16:44:45.306Z,100308.70
2017-12-16T16:47:12.766Z,100312.98
2017-12-16T16:49:40.203Z,100308.30
2017-12-16T16:52:07.723Z,100312.74
2017-12-16T16:54:35.170Z,100317.95
2017-12-16T16:57:02.651Z,100330.73
2017-12-16T16:59:30.100Z,100332.48
2017-12-16T17:01:57.574Z,100327.23
2017-12-16T17:04:25.018Z,100329.33
2017-12-16T17:06:52.479Z,100336.84
2017-12-16T17:09:19.940Z,100338.60
2017-12-16T17:11:47.438Z,100341.16
2017-12-16T17:14:14.901Z,100338.58
2017-12-16T17:16:42.358Z,100346.47
2017-12-16T17:19:09.819Z,100344.77
2017-12-16T17:21:37.381Z,100346.09
2017-12-16T17:24:04.809Z,100355.30
2017-12-16T17:26:32.309Z,100360.57
2017-12-16T17:28:59.818Z,100362.75
2017-12-16T17:31:27.270Z,100364.50
2017-12-16T17:33:54.731Z,100366.69
2017-12-16T17:36:22.188Z,100373.73
2017-12-16T17:38:49.656Z,100367.16
2017-12-16T17:41:17.151Z,100371.58
2017-12-16T17:43:44.601Z,100378.18
2017-12-16T17:46:12.038Z,100384.80
2017-12-16T17:48:39.500Z,100393.13
2017-12-16T17:51:06.932Z,100392.28
2017-12-16T17:53:34.416Z,100396.66
2017-12-16T17:56:01.858Z,100395.77
2017-12-16T17:58:29.338Z,100399.72
2017-12-16T18:00:56.919Z,100404.55
2017-12-16T18:03:24.382Z,100415.94
2017-12-16T18:05:51.817Z,100411.99
2017-12-16T18:08:20.374Z,100411.12
2017-12-16T18:10:47.805Z,100414.62
2017-12-16T18:13:15.344Z,100418.56
2017-12-16T18:15:43.092Z,100418.98
2017-12-16T18:18:10.579Z,100417.23
2017-12-16T18:20:38.635Z,100418.11
2017-12-16T18:23:06.787Z,100422.91
2017-12-16T18:25:34.403Z,100420.75
2017-12-16T18:28:01.837Z,100420.76
2017-12-16T18:30:29.302Z,100426.03
2017-12-16T18:32:56.761Z,100421.64
2017-12-16T18:35:24.217Z,100423.40
2017-12-16T18:37:51.706Z,100422.94
2017-12-16T18:40:19.218Z,100424.26
2017-12-16T18:42:46.657Z,100422.05
2017-12-16T18:45:14.124Z,100421.61
2017-12-16T18:47:41.654Z,100428.17
2017-12-16T18:50:09.127Z,100432.10
2017-12-16T18:52:36.634Z,100438.73
2017-12-16T18:55:04.086Z,100453.20
2017-12-16T18:57:31.632Z,100454.92
2017-12-16T18:59:59.126Z,100454.05
2017-12-16T19:02:26.682Z,100456.24
2017-12-16T19:04:54.123Z,100457.14
2017-12-16T19:07:21.587Z,100453.60
2017-12-16T19:09:49.035Z,100463.70
2017-12-16T19:12:16.491Z,100465.91
2017-12-16T19:14:43.958Z,100464.16
2017-12-16T19:17:11.506Z,100468.96
2017-12-16T19:19:38.950Z,100464.14
2017-12-16T19:22:06.419Z,100469.41
2017-12-16T19:24:33.855Z,100472.03
2017-12-16T19:27:01.452Z,100472.45
2017-12-16T19:29:28.911Z,100480.32
2017-12-16T19:31:56.361Z,100484.77
2017-12-16T19:34:23.810Z,100482.58
2017-12-16T19:36:51.279Z,100485.21
2017-12-16T19:39:18.721Z,100485.20
2017-12-16T19:41:46.192Z,100487.84
2017-12-16T19:44:13.625Z,100502.75
2017-12-16T19:46:41.087Z,100500.55
2017-12-16T19:49:08.527Z,100503.18
2017-12-16T19:51:36.016Z,100512.82
2017-12-16T19:54:03.468Z,100511.96
2017-12-16T19:56:30.923Z,100514.14
2017-12-16T19:58:58.395Z,100515.89
2017-12-16T20:01:25.832Z,100513.70
2017-12-16T20:03:53.344Z,100511.50
2017-12-16T20:06:20.778Z,100515.05
2017-12-16T20:08:48.231Z,100517.23
2017-12-16T20:11:15.671Z,100514.13
2017-12-16T20:13:43.121Z,100519.84
2017-12-16T20:16:10.556Z,100521.13
2017-12-16T20:18:38.019Z,100519.39
2017-12-16T20:21:05.480Z,100524.66
2017-12-16T20:23:32.955Z,100520.72
2017-12-16T20:26:00.403Z,100527.75
2017-12-16T20:28:27.857Z,100529.50
2017-12-16T20:30:55.298Z,100533.45
2017-12-16T20:33:22.860Z,100527.73
2017-12-16T20:35:50.781Z,100525.10
2017-12-16T20:38:18.214Z,100522.92
2017-12-16T20:40:45.679Z,100534.32
2017-12-16T20:43:13.108Z,100524.67
2017-12-16T20:45:40.562Z,100527.28
2017-12-16T20:50:42.012Z,100524.65
2017-12-16T20:53:09.480Z,100529.50
2017-12-16T20:55:36.959Z,100521.16
2017-12-16T20:58:04.406Z,100528.18
2017-12-16T21:00:31.875Z,100526.88
2017-12-16T21:02:59.314Z,100534.75
2017-12-16T21:05:26.779Z,100536.94
2017-12-16T21:07:54.214Z,100538.23
2017-12-16T21:10:21.670Z,100536.95
2017-12-16T21:12:49.101Z,100539.13
2017-12-16T21:15:16.599Z,100544.40
2017-12-16T21:17:44.040Z,100548.38
2017-12-16T21:20:11.479Z,100552.73
2017-12-16T21:22:38.949Z,100553.62
2017-12-16T21:25:06.377Z,100547.94
2017-12-16T21:27:33.844Z,100559.31
2017-12-16T21:30:01.283Z,100556.25
2017-12-16T21:32:28.747Z,100558.00
2017-12-16T21:34:56.196Z,100562.41
2017-12-16T21:37:23.658Z,100568.55
2017-12-16T21:39:51.089Z,100557.12
2017-12-16T21:42:18.554Z,100568.55
2017-12-16T21:44:46.003Z,100575.13
2017-12-16T21:47:13.457Z,100564.59
2017-12-16T21:49:41.175Z,100578.65
2017-12-16T21:52:08.647Z,100583.45
2017-12-16T21:54:36.096Z,100579.94
2017-12-16T21:57:03.612Z,100583.45
2017-12-16T21:59:31.104Z,100579.06
2017-12-16T22:01:58.620Z,100575.13
2017-12-16T22:04:26.079Z,100584.77
2017-12-16T22:06:53.515Z,100586.09
2017-12-16T22:09:20.985Z,100592.66
2017-12-16T22:11:48.441Z,100597.48
2017-12-16T22:14:15.941Z,100604.50
2017-12-16T22:16:43.389Z,100609.31
2017-12-16T22:19:10.852Z,100614.57
2017-12-16T22:21:38.290Z,100615.93
2017-12-16T22:24:05.770Z,100618.05
2017-12-16T22:26:33.245Z,100625.54
2017-12-16T22:29:00.716Z,100627.70
2017-12-16T22:31:28.161Z,100624.15
2017-12-16T22:33:55.695Z,100626.77
2017-12-16T22:36:23.136Z,100629.41
2017-12-16T22:38:50.642Z,100628.52
2017-12-16T22:41:18.078Z,100630.72
2017-12-16T22:43:45.510Z,100632.55
2017-12-16T22:46:12.966Z,100635.59
2017-12-16T22:48:40.398Z,100637.74
2017-12-16T22:51:07.855Z,100639.92
2017-12-16T22:53:35.297Z,100639.05
2017-12-16T22:56:02.764Z,100643.87
2017-12-16T22:58:30.208Z,100639.05
2017-12-16T23:00:57.661Z,100641.28
2017-12-16T23:03:25.098Z,100645.67
2017-12-16T23:05:52.572Z,100644.36
2017-12-16T23:08:20.010Z,100644.39
2017-12-16T23:10:47.485Z,100643.00
2017-12-16T23:13:15.002Z,100652.24
2017-12-16T23:15:42.463Z,100656.63
2017-12-16T23:18:09.915Z,100657.58
2017-12-16T23:20:37.412Z,100655.75
2017-12-16T23:23:04.850Z,100656.20
2017-12-16T23:25:32.289Z,100657.52
2017-12-16T23:27:59.742Z,100658.82
2017-12-16T23:30:27.196Z,100664.95
2017-12-16T23:32:54.662Z,100664.56
2017-12-16T23:35:22.098Z,100658.78
2017-12-16T23:37:49.564Z,100657.07
2017-12-16T23:40:17.029Z,100662.38
2017-12-16T23:42:44.474Z,100660.53
2017-12-16T23:45:11.910Z,100665.36
2017-12-16T23:47:39.384Z,100668.42
2017-12-16T23:50:06.821Z,100663.60
2017-12-16T23:52:34.310Z,100667.98
2017-12-16T23:55:01.755Z,100664.97
2017-12-16T23:57:29.236Z,100663.20
2017-12-16T23:59:56.679Z,100667.98
